Terminal Aerodrome Forecast
Issued by NWS Melbourne, FL

Home | Current Version | Previous Version | Text Only | Print | Product List | Glossary On
Versions: 1 2 3 4 5 6 7 8 9 10 11 12 13
020
FTUS42 KMLB 212321
TAFDAB
TAF
KDAB 212321Z 2200/2224 03005KT P6SM FEW030 FEW050
     FM220400 04004KT P6SM SKC
     FM220800 08003KT 3SM BR SCT008
     FM221400 13009KT P6SM FEW020 BKN050=

USA.gov is the U.S. government's official web portal to all federal, state and local government web resources and services.